Weather at Sencol Airport

Public forecast

Using degrees Celsius for public forecast. Weather courtesy of forecast.io.

Closest aviation weather report (METAR) to Sencol Airport

Report is more than 6 hours old.

Closest report is Kariba International Airport, 74.1 nm (137.3 km) NNE. Retrieved 2021/07/15 06:00 UTC (9 days ago):

FVKB 150600Z 00000KT 9999 SCT040 20/14 Q1024

Closest aviation forecast (TAF) to Sencol Airport

Forecast is more than 12 hours old.

Closest forecast is Kariba International Airport, 74.1 nm (137.3 km) NNE. Retrieved 2018/08/24 06:00 UTC (3 years ago):

TAF FVKB 240400Z 2406/2416 27005KT CAVOK